Time;durP1;ratioP1;P1;durP2;ratioP2;P2;SDS_P1;SDS_P2;PMS_P1;PMS_P2;Temp;Humidity;BMP_temperature;BMP_pressure;BME280_temperature;BME280_humidity;BME280_pressure;Samples;Min_cycle;Max_cycle;Signal;HPM_P1;HPM_P2
2022/01/24 00:02:17;;;;;;;;;15.25;14.50;;;;;20.79;32.24;102836.56;5063316;28;51017;-44
2022/01/24 00:04:43;;;;;;;;;13.75;12.00;;;;;20.77;32.33;102833.13;5088411;27;50896;-45
2022/01/24 00:07:08;;;;;;;;;14.75;9.50;;;;;20.78;32.60;102836.75;5056512;28;51254;-45
2022/01/24 00:09:34;;;;;;;;;12.50;12.25;;;;;20.75;32.23;102836.06;5058957;28;51231;-44
2022/01/24 00:12:14;;;;;;;;;11.25;11.25;;;;;20.74;32.51;102833.50;5074415;28;51035;-47
2022/01/24 00:28:11;;;;;;;;;13.00;11.25;;;;;20.67;32.50;102814.03;5066826;28;51296;-45
2022/01/24 00:30:36;;;;;;;;;13.75;9.00;;;;;20.66;32.77;102815.09;5067428;28;51064;-46
2022/01/24 00:33:02;;;;;;;;;8.25;7.50;;;;;20.65;32.62;102812.50;5058869;28;51023;-45
2022/01/24 00:35:27;;;;;;;;;11.00;8.50;;;;;20.63;32.37;102809.91;5068515;27;51127;-45
2022/01/24 00:37:52;;;;;;;;;9.75;9.75;;;;;20.63;32.37;102812.66;5059463;28;50952;-44
2022/01/24 00:40:18;;;;;;;;;9.50;9.00;;;;;20.63;32.50;102809.06;5071652;28;52013;-44
2022/01/24 00:42:58;;;;;;;;;11.25;9.50;;;;;20.61;32.73;102806.47;5077662;28;50897;-45
2022/01/24 00:45:37;;;;;;;;;11.25;10.75;;;;;20.61;32.28;102805.63;5077383;27;51068;-48
2022/01/24 00:48:27;;;;;;;;;9.50;8.75;;;;;20.59;32.70;102797.53;5059332;28;51158;-44
2022/01/24 00:54:00;;;;;;;;;9.50;7.50;;;;;20.57;32.40;102794.13;5078958;28;51011;-44
2022/01/24 00:56:25;;;;;;;;;14.00;11.00;;;;;20.57;32.66;102798.75;5078534;27;51142;-47
2022/01/24 00:58:50;;;;;;;;;10.00;10.00;;;;;20.55;32.66;102790.69;5072564;28;50920;-45
2022/01/24 01:01:16;;;;;;;;;10.50;9.50;;;;;20.54;32.64;102788.09;5067357;28;51093;-46
2022/01/24 01:03:41;;;;;;;;;11.00;9.00;;;;;20.53;32.53;102787.25;5059069;28;51016;-44
2022/01/24 01:06:09;;;;;;;;;11.00;9.00;;;;;20.53;32.91;102789.13;5059006;28;50985;-44
2022/01/24 01:19:33;;;;;;;;;9.75;9.75;;;;;20.47;32.57;102790.69;5061130;28;51143;-44
2022/01/24 01:21:59;;;;;;;;;12.75;10.75;;;;;20.45;32.52;102790.88;5078131;28;51008;-44
2022/01/24 01:24:26;;;;;;;;;12.00;11.50;;;;;20.45;32.48;102784.50;5069900;27;50934;-46
2022/01/24 01:27:00;;;;;;;;;7.00;7.00;;;;;20.45;32.36;102795.53;5063147;28;51043;-45
2022/01/24 01:29:34;;;;;;;;;12.50;9.50;;;;;20.44;33.04;102789.16;5067112;28;51069;-47
2022/01/24 01:35:09;;;;;;;;;9.75;8.75;;;;;20.42;32.98;102787.56;5077982;27;51297;-46
2022/01/24 01:52:17;;;;;;;;;10.25;9.00;;;;;20.41;32.53;102780.34;5060016;28;51040;-46
2022/01/24 01:56:33;;;;;;;;;9.25;8.25;;;;;20.35;32.90;102784.66;5076543;28;51357;-44
2022/01/24 01:58:59;;;;;;;;;9.25;8.50;;;;;20.34;32.75;102776.59;5060661;28;51544;-46
2022/01/24 02:01:24;;;;;;;;;9.00;8.25;;;;;20.33;32.71;102778.50;5062068;28;51207;-43
2022/01/24 02:03:54;;;;;;;;;9.75;8.00;;;;;20.32;32.82;102782.28;5077349;28;52601;-44
2022/01/24 02:06:20;;;;;;;;;11.25;7.50;;;;;20.32;32.63;102785.03;5058761;28;50940;-44
2022/01/24 02:08:45;;;;;;;;;10.25;10.25;;;;;20.32;32.65;102792.41;5057792;28;50977;-43
2022/01/24 02:11:15;;;;;;;;;10.25;9.50;;;;;20.31;33.08;102791.53;5076843;28;50977;-50
2022/01/24 02:13:41;;;;;;;;;9.25;8.50;;;;;20.29;32.68;102788.09;5077101;27;52634;-45
2022/01/24 02:16:18;;;;;;;;;7.25;7.25;;;;;20.29;33.08;102785.34;5075608;27;50994;-43
2022/01/24 02:21:39;;;;;;;;;9.00;7.75;;;;;20.28;32.87;102789.13;5058076;28;51324;-43
2022/01/24 02:24:05;;;;;;;;;9.00;9.00;;;;;20.28;32.74;102791.03;5057635;28;51754;-44
2022/01/24 02:26:31;;;;;;;;;11.25;9.50;;;;;20.27;32.96;102789.31;5069540;28;51085;-42
2022/01/24 02:33:49;;;;;;;;;9.75;8.50;;;;;20.24;33.22;102775.91;5070261;28;51712;-43
2022/01/24 02:36:23;;;;;;;;;12.75;11.00;;;;;20.23;32.69;102764.06;5060290;28;51043;-43
2022/01/24 02:49:37;;;;;;;;;15.25;9.50;;;;;20.20;33.18;102769.88;5056791;28;51063;-46
2022/01/24 02:52:02;;;;;;;;;10.50;7.50;;;;;20.18;33.05;102760.94;5076847;28;51083;-44
2022/01/24 02:54:29;;;;;;;;;9.00;8.00;;;;;20.18;32.95;102758.19;5063506;28;51405;-46
2022/01/24 02:56:55;;;;;;;;;12.00;8.50;;;;;20.17;33.36;102753.72;5074721;28;51236;-44
2022/01/24 02:59:21;;;;;;;;;8.00;8.00;;;;;20.16;32.98;102752.88;5076542;28;51286;-43
2022/01/24 03:01:47;;;;;;;;;15.75;12.00;;;;;20.15;32.76;102750.31;5077227;28;51134;-43
2022/01/24 03:04:13;;;;;;;;;8.00;6.75;;;;;20.15;32.97;102750.31;5059889;27;52192;-43
2022/01/24 03:06:38;;;;;;;;;10.75;8.75;;;;;20.14;32.87;102749.44;5072013;28;51124;-43
2022/01/24 03:09:06;;;;;;;;;9.75;8.50;;;;;20.13;33.03;102746.88;5077011;28;51119;-43
2022/01/24 03:11:55;;;;;;;;;11.25;10.00;;;;;20.13;32.82;102746.88;5076623;28;51639;-44
2022/01/24 03:14:18;;;;;;;;;7.50;7.50;;;;;20.12;32.81;102748.75;5060726;27;50981;-44
2022/01/24 03:16:44;;;;;;;;;9.75;8.25;;;;;20.11;33.07;102744.31;5089037;27;50970;-43
2022/01/24 03:19:09;;;;;;;;;11.50;10.50;;;;;20.10;33.14;102748.06;5056503;28;51091;-44
2022/01/24 03:21:35;;;;;;;;;12.75;9.75;;;;;20.10;32.76;102747.19;5056180;28;51301;-45
2022/01/24 03:24:00;;;;;;;;;11.50;10.25;;;;;20.08;32.96;102752.88;5072235;27;51972;-47
2022/01/24 03:26:26;;;;;;;;;7.00;7.00;;;;;20.08;33.11;102733.63;5066179;28;50993;-49
2022/01/24 03:28:52;;;;;;;;;9.25;8.25;;;;;20.08;32.96;102741.88;5056951;28;51261;-43
2022/01/24 03:31:17;;;;;;;;;9.00;8.00;;;;;20.07;33.16;102736.56;5066445;28;51186;-43
2022/01/24 03:33:43;;;;;;;;;10.00;8.75;;;;;20.07;32.88;102740.16;5060864;28;52463;-44
2022/01/24 03:36:08;;;;;;;;;10.00;8.50;;;;;20.06;33.07;102737.59;5068238;27;50982;-44
2022/01/24 03:38:34;;;;;;;;;10.00;9.00;;;;;20.06;32.70;102737.59;5056613;28;51151;-44
2022/01/24 03:40:59;;;;;;;;;14.75;8.75;;;;;20.05;33.07;102731.22;5076565;28;51182;-47
2022/01/24 03:43:25;;;;;;;;;10.25;9.50;;;;;20.04;32.89;102728.66;5060720;28;51226;-44
2022/01/24 03:46:11;;;;;;;;;6.50;5.00;;;;;20.03;32.79;102730.56;5071787;28;51008;-44
2022/01/24 03:48:40;;;;;;;;;8.50;7.00;;;;;20.02;32.93;102737.09;5050753;28;50943;-44
2022/01/24 03:51:05;;;;;;;;;10.50;8.75;;;;;20.02;32.70;102734.34;5056729;28;51260;-46
2022/01/24 03:53:31;;;;;;;;;13.00;12.00;;;;;20.01;32.91;102735.38;5068510;28;51882;-43
2022/01/24 03:55:57;;;;;;;;;9.00;9.00;;;;;20.00;33.14;102732.75;5076079;28;50998;-43
2022/01/24 03:58:22;;;;;;;;;6.00;6.00;;;;;19.99;33.04;102729.16;5059053;28;51363;-44
2022/01/24 04:00:47;;;;;;;;;9.25;6.75;;;;;19.98;32.83;102730.19;5074971;28;50970;-43
2022/01/24 04:03:14;;;;;;;;;8.50;6.75;;;;;19.97;32.89;102725.72;5065169;28;52708;-43
2022/01/24 04:05:41;;;;;;;;;10.75;8.25;;;;;19.97;33.07;102714.72;5059926;28;50963;-43
2022/01/24 04:08:06;;;;;;;;;6.00;6.00;;;;;19.97;32.92;102719.38;5059923;28;51028;-43
2022/01/24 04:10:41;;;;;;;;;9.75;9.00;;;;;19.96;32.79;102712.16;5059766;28;51011;-43
2022/01/24 04:13:20;;;;;;;;;8.25;8.25;;;;;19.95;32.84;102710.44;5079406;27;52006;-44
2022/01/24 04:15:58;;;;;;;;;9.75;8.50;;;;;19.94;32.65;102709.59;5059941;28;50916;-43
2022/01/24 04:23:49;;;;;;;;;8.25;7.00;;;;;19.93;33.23;102712.50;5071815;27;51132;-45
2022/01/24 04:26:15;;;;;;;;;9.25;9.25;;;;;19.92;32.77;102705.28;5076838;28;50916;-43
2022/01/24 04:28:40;;;;;;;;;9.75;7.75;;;;;19.90;32.67;102708.19;5060801;28;50872;-44
2022/01/24 04:31:06;;;;;;;;;10.25;8.25;;;;;19.89;33.08;102707.34;5068072;28;51286;-44
2022/01/24 04:33:32;;;;;;;;;7.00;6.00;;;;;19.89;32.82;102711.97;5060252;28;51878;-45
2022/01/24 04:35:57;;;;;;;;;8.25;6.50;;;;;19.88;32.82;102710.25;5062957;28;51022;-44
2022/01/24 04:38:23;;;;;;;;;8.00;7.25;;;;;19.88;32.87;102715.75;5072240;28;51210;-43
2022/01/24 04:40:49;;;;;;;;;9.00;9.00;;;;;19.88;32.72;102715.75;5068135;28;50979;-43
2022/01/24 04:56:40;;;;;;;;;7.75;7.75;;;;;19.83;33.13;102719.03;5051558;28;51223;-45
2022/01/24 04:59:06;;;;;;;;;10.75;10.75;;;;;19.82;32.84;102710.97;5059357;28;51481;-43
2022/01/24 05:01:32;;;;;;;;;6.50;6.50;;;;;19.83;33.16;102712.69;5059808;28;51183;-43
2022/01/24 05:03:57;;;;;;;;;10.75;7.75;;;;;19.81;32.74;102714.75;5058506;28;51066;-44
2022/01/24 05:06:23;;;;;;;;;9.00;7.00;;;;;19.81;32.97;102717.50;5059044;28;51011;-44
2022/01/24 05:08:48;;;;;;;;;11.25;9.25;;;;;19.80;32.97;102718.50;5073788;28;51032;-46
2022/01/24 05:11:19;;;;;;;;;8.75;7.75;;;;;19.79;32.87;102712.16;5065904;28;51253;-44
2022/01/24 05:24:28;;;;;;;;;9.50;8.00;;;;;19.75;32.68;102716.28;5076572;27;50986;-43
2022/01/24 05:26:53;;;;;;;;;7.75;7.75;;;;;19.75;33.03;102715.44;5077896;28;50818;-47
2022/01/24 05:29:19;;;;;;;;;12.00;8.50;;;;;19.74;32.78;102717.31;5074429;28;51349;-43
2022/01/24 05:31:44;;;;;;;;;11.25;11.00;;;;;19.74;32.97;102717.31;5077808;28;51945;-42
2022/01/24 05:34:09;;;;;;;;;11.50;9.25;;;;;19.74;33.07;102713.72;5065157;28;54209;-43
2022/01/24 05:36:35;;;;;;;;;7.00;7.00;;;;;19.74;32.95;102710.97;5073886;28;50811;-44
2022/01/24 05:39:01;;;;;;;;;8.75;6.50;;;;;19.73;32.93;102709.25;5068476;28;51086;-45
2022/01/24 05:41:27;;;;;;;;;7.00;5.75;;;;;19.72;32.79;102707.53;5058564;28;51078;-46
2022/01/24 05:43:53;;;;;;;;;8.50;7.75;;;;;19.72;33.30;102707.53;5057925;28;51859;-43
2022/01/24 05:46:18;;;;;;;;;9.00;8.00;;;;;19.72;33.30;102718.53;5058357;28;51051;-46
2022/01/24 05:48:43;;;;;;;;;26.25;24.50;;;;;19.71;32.28;102722.31;5065259;28;51458;-45
2022/01/24 05:51:09;;;;;;;;;23.75;19.25;;;;;19.70;31.92;102712.38;5067729;28;51100;-47
2022/01/24 05:53:34;;;;;;;;;15.75;15.75;;;;;19.67;32.05;102697.03;5070519;28;51104;-44
2022/01/24 05:56:00;;;;;;;;;16.25;14.75;;;;;19.65;32.15;102709.25;5077891;28;50928;-43
2022/01/24 05:58:25;;;;;;;;;14.75;14.75;;;;;19.65;32.13;102701.84;5069777;28;51063;-44
2022/01/24 06:00:50;;;;;;;;;17.50;13.25;;;;;19.66;32.04;102710.97;5075540;28;51297;-47
2022/01/24 06:03:17;;;;;;;;;10.75;10.00;;;;;19.67;32.09;102702.53;5067050;28;51048;-44
2022/01/24 06:05:43;;;;;;;;;11.00;10.50;;;;;19.70;32.43;102709.63;5077724;27;51047;-45
2022/01/24 06:08:08;;;;;;;;;11.50;11.50;;;;;19.71;32.27;102703.94;5067335;28;51086;-46
2022/01/24 06:10:37;;;;;;;;;13.75;13.00;;;;;19.74;32.56;102699.97;5058137;28;51382;-43
2022/01/24 06:13:02;;;;;;;;;11.00;10.75;;;;;19.76;32.57;102698.75;5063480;28;52811;-44
2022/01/24 06:15:27;;;;;;;;;10.50;10.50;;;;;19.78;32.67;102706.84;5057784;28;51054;-44
2022/01/24 06:17:53;;;;;;;;;16.00;12.50;;;;;19.78;32.60;102704.94;5058925;28;50943;-43
2022/01/24 06:20:18;;;;;;;;;8.75;8.75;;;;;19.79;32.34;102711.28;5075516;28;50839;-45
2022/01/24 06:22:44;;;;;;;;;12.00;11.00;;;;;19.79;32.77;102714.03;5060068;28;51773;-47
2022/01/24 06:25:10;;;;;;;;;11.00;8.75;;;;;19.79;32.52;102712.16;5072496;28;51005;-45
2022/01/24 06:27:36;;;;;;;;;10.00;9.50;;;;;19.79;32.57;102712.16;5063701;28;51140;-44
2022/01/24 06:30:02;;;;;;;;;13.75;9.75;;;;;19.79;32.53;102712.16;5059303;28;51090;-44
2022/01/24 06:32:27;;;;;;;;;11.50;9.75;;;;;19.80;32.45;102729.50;5068801;28;51229;-44
2022/01/24 06:34:52;;;;;;;;;11.75;9.25;;;;;19.85;32.73;102727.13;5068023;28;52339;-46
2022/01/24 06:37:18;;;;;;;;;14.25;11.00;;;;;19.91;32.46;102715.44;5065861;28;50865;-45
2022/01/24 06:39:43;;;;;;;;;8.75;8.75;;;;;19.99;32.68;102720.91;5068689;28;50880;-44
2022/01/24 06:42:14;;;;;;;;;8.25;8.25;;;;;20.07;32.33;102720.03;5063432;28;52625;-45
2022/01/24 06:44:40;;;;;;;;;11.75;9.25;;;;;20.16;32.51;102722.59;5074226;28;51379;-44
2022/01/24 06:47:07;;;;;;;;;9.50;9.25;;;;;20.25;32.62;102719.84;5069585;28;51227;-48
2022/01/24 06:49:34;;;;;;;;;8.00;6.75;;;;;20.33;32.70;102722.59;5077600;28;50865;-45
2022/01/24 06:52:00;;;;;;;;;10.50;10.25;;;;;20.39;32.62;102721.84;5059622;28;51993;-46
2022/01/24 06:54:25;;;;;;;;;4.25;4.25;;;;;20.47;32.67;102721.88;5060290;28;51026;-45
2022/01/24 06:56:51;;;;;;;;;11.25;10.75;;;;;20.55;32.57;102726.50;5076040;28;50923;-44
2022/01/24 06:59:16;;;;;;;;;10.75;8.00;;;;;20.61;32.63;102723.88;5061691;28;50934;-44
2022/01/24 07:01:41;;;;;;;;;7.75;7.00;;;;;20.68;32.32;102733.16;5062320;28;51079;-44
2022/01/24 07:04:07;;;;;;;;;9.25;8.25;;;;;20.75;32.26;102733.31;5063140;28;51184;-45
2022/01/24 07:06:32;;;;;;;;;12.50;9.00;;;;;20.82;32.36;102731.53;5066033;28;50881;-45
2022/01/24 07:08:58;;;;;;;;;8.00;6.75;;;;;20.87;32.31;102728.25;5058139;28;51113;-44
2022/01/24 07:11:24;;;;;;;;;6.25;6.00;;;;;20.92;32.43;102732.16;5072799;28;51050;-46
2022/01/24 07:13:50;;;;;;;;;10.25;9.75;;;;;20.98;32.32;102733.34;5061068;28;50983;-44
2022/01/24 07:16:16;;;;;;;;;8.50;8.50;;;;;21.03;32.43;102739.16;5066138;28;51300;-44
2022/01/24 07:19:03;;;;;;;;;6.00;6.00;;;;;21.08;32.10;102734.00;5069555;28;51201;-45
2022/01/24 07:21:29;;;;;;;;;11.50;9.75;;;;;21.14;31.95;102733.25;5066244;28;51961;-45
2022/01/24 07:23:55;;;;;;;;;14.75;10.75;;;;;21.17;31.76;102735.66;5089073;27;51547;-48
2022/01/24 07:26:20;;;;;;;;;10.00;8.75;;;;;21.22;32.28;102735.97;5067373;28;51134;-44
2022/01/24 07:28:45;;;;;;;;;11.50;10.25;;;;;21.26;32.36;102737.38;5074156;28;50802;-45
2022/01/24 07:31:11;;;;;;;;;15.75;10.00;;;;;21.32;32.24;102733.88;5072468;28;50993;-44
2022/01/24 07:33:37;;;;;;;;;8.50;7.25;;;;;21.38;32.46;102735.03;5063411;28;51205;-44
2022/01/24 07:36:03;;;;;;;;;9.00;9.00;;;;;21.44;32.93;102742.56;5072353;28;51331;-44
2022/01/24 07:38:29;;;;;;;;;9.00;8.00;;;;;21.50;32.64;102735.47;5068799;28;51316;-44
2022/01/24 07:40:55;;;;;;;;;10.50;8.25;;;;;21.56;33.04;102735.56;5092370;27;51170;-44
2022/01/24 07:43:21;;;;;;;;;10.75;9.75;;;;;21.60;32.43;102742.47;5076543;28;51151;-46
2022/01/24 07:45:47;;;;;;;;;9.75;8.00;;;;;21.66;32.10;102734.47;5066321;28;51029;-46
2022/01/24 07:48:14;;;;;;;;;13.25;11.25;;;;;21.69;31.90;102739.63;5064965;28;51202;-44
2022/01/24 07:50:44;;;;;;;;;11.75;8.75;;;;;21.72;31.67;102737.34;5059297;28;53179;-46
2022/01/24 07:53:12;;;;;;;;;13.00;12.50;;;;;21.74;31.17;102740.78;5060319;28;51477;-45
2022/01/24 07:55:38;;;;;;;;;11.50;10.00;;;;;21.79;31.79;102735.59;5060590;28;51115;-46
2022/01/24 07:58:04;;;;;;;;;9.00;8.75;;;;;21.84;31.61;102737.78;5060850;28;50896;-44
2022/01/24 08:00:30;;;;;;;;;13.75;10.00;;;;;21.89;31.15;102738.94;5075653;28;54669;-45
2022/01/24 08:02:57;;;;;;;;;11.00;10.75;;;;;21.95;31.17;102742.84;5060049;28;50856;-45
2022/01/24 08:05:23;;;;;;;;;13.75;10.00;;;;;22.00;30.99;102751.44;5059986;28;51011;-44
2022/01/24 08:07:49;;;;;;;;;11.75;9.75;;;;;22.05;30.97;102750.84;5059067;28;51287;-45
2022/01/24 08:10:14;;;;;;;;;13.50;11.50;;;;;22.10;31.03;102748.44;5059866;28;51913;-47
2022/01/24 08:12:42;;;;;;;;;9.75;8.50;;;;;22.13;30.77;102750.81;5060029;28;51052;-45
2022/01/24 08:15:11;;;;;;;;;12.00;10.50;;;;;22.16;30.43;102755.97;5059909;28;51036;-44
2022/01/24 08:17:37;;;;;;;;;11.25;11.00;;;;;22.18;30.45;102757.47;5059805;28;51213;-43
2022/01/24 08:20:02;;;;;;;;;11.00;10.00;;;;;22.22;30.77;102755.22;5059744;28;51928;-46
2022/01/24 08:22:27;;;;;;;;;12.25;9.00;;;;;22.25;30.66;102751.22;5059826;28;51014;-45
2022/01/24 08:24:53;;;;;;;;;10.25;9.75;;;;;22.27;30.68;102754.63;5059905;28;51665;-46
2022/01/24 08:27:19;;;;;;;;;11.25;10.75;;;;;22.28;30.14;102757.19;5073156;28;50893;-45
2022/01/24 08:29:47;;;;;;;;;8.75;8.75;;;;;22.28;30.61;102759.09;5080334;27;51737;-45
2022/01/24 08:32:13;;;;;;;;;12.50;10.25;;;;;22.25;29.93;102754.84;5080362;27;51001;-48
2022/01/24 08:34:38;;;;;;;;;10.25;10.25;;;;;22.25;30.49;102762.25;5080633;27;51298;-45
2022/01/24 08:37:05;;;;;;;;;9.00;8.75;;;;;22.25;30.09;102760.34;5080706;27;51141;-44
2022/01/24 08:39:30;;;;;;;;;10.75;10.25;;;;;22.24;30.55;102766.91;5079201;27;51891;-45
2022/01/24 08:45:41;;;;;;;;;11.50;10.75;;;;;22.17;30.46;102775.09;5079694;27;51318;-44
2022/01/24 08:47:07;;;;;;;;;19.25;14.50;;;;;22.12;29.66;102772.03;5078978;28;51131;-44
2022/01/24 08:49:33;;;;;;;;;20.75;20.25;;;;;22.05;28.95;102772.94;5079125;28;51598;-45
2022/01/24 08:52:00;;;;;;;;;23.75;20.75;;;;;21.96;28.51;102776.81;5079848;27;51360;-45
2022/01/24 08:54:26;;;;;;;;;18.00;17.25;;;;;21.87;28.99;102771.34;5079533;27;51159;-46
2022/01/24 08:56:51;;;;;;;;;22.50;18.75;;;;;21.80;28.58;102762.13;5079651;27;51155;-45
2022/01/24 08:59:17;;;;;;;;;19.75;16.75;;;;;21.79;29.00;102771.44;5079183;28;50971;-44
2022/01/24 09:01:43;;;;;;;;;15.75;15.00;;;;;21.82;28.53;102767.44;5079218;27;51008;-44
2022/01/24 09:04:09;;;;;;;;;12.50;12.50;;;;;21.87;28.62;102773.25;5079473;27;50852;-44
2022/01/24 09:06:35;;;;;;;;;11.00;10.25;;;;;21.92;28.67;102770.81;5079731;27;50920;-45
2022/01/24 09:09:04;;;;;;;;;10.00;8.50;;;;;21.97;28.90;102771.09;5079167;27;51798;-45
2022/01/24 09:11:34;;;;;;;;;10.75;8.50;;;;;22.02;29.08;102774.16;5079025;27;51069;-47
2022/01/24 09:14:01;;;;;;;;;10.25;8.75;;;;;22.08;28.59;102780.88;5079206;27;50830;-48
2022/01/24 09:16:27;;;;;;;;;14.75;9.75;;;;;22.13;29.09;102786.69;5079062;27;50993;-45
2022/01/24 09:18:54;;;;;;;;;9.25;9.25;;;;;22.18;28.92;102774.03;5078237;27;51120;-45
2022/01/24 09:21:20;;;;;;;;;8.50;8.50;;;;;22.23;29.10;102776.25;5078932;27;51086;-44
2022/01/24 09:23:45;;;;;;;;;11.50;11.50;;;;;22.27;29.09;102776.72;5079342;27;51060;-48
2022/01/24 09:26:11;;;;;;;;;12.00;9.75;;;;;22.32;29.26;102786.16;5076139;28;51438;-44
2022/01/24 09:28:37;;;;;;;;;7.75;7.50;;;;;22.34;28.77;102786.84;5058821;28;51806;-46
2022/01/24 09:31:02;;;;;;;;;9.75;7.50;;;;;22.39;29.10;102780.72;5074406;28;50914;-47
2022/01/24 09:33:28;;;;;;;;;11.00;8.25;;;;;22.43;28.89;102777.41;5058672;28;50913;-48
2022/01/24 09:35:59;;;;;;;;;11.75;10.25;;;;;22.48;29.14;102782.38;5058943;28;50944;-46
2022/01/24 09:38:26;;;;;;;;;10.50;8.00;;;;;22.53;28.83;102781.81;5058056;28;52878;-44
2022/01/24 09:40:52;;;;;;;;;9.00;9.00;;;;;22.56;28.96;102782.28;5058447;28;51360;-44
2022/01/24 09:43:18;;;;;;;;;7.25;7.00;;;;;22.57;29.15;102778.47;5058720;28;50858;-46
2022/01/24 09:45:43;;;;;;;;;6.50;5.25;;;;;22.56;28.73;102782.28;5058405;28;51321;-44
2022/01/24 09:48:11;;;;;;;;;9.00;9.00;;;;;22.52;29.05;102785.63;5058232;28;50993;-46
2022/01/24 09:50:36;;;;;;;;;9.00;9.00;;;;;22.47;29.51;102784.28;5058064;28;51253;-47
2022/01/24 09:53:02;;;;;;;;;9.75;9.25;;;;;22.41;29.41;102785.03;5058176;28;51097;-48
2022/01/24 09:55:28;;;;;;;;;8.00;8.00;;;;;22.35;29.30;102785.78;5057310;28;51395;-46
2022/01/24 09:57:54;;;;;;;;;8.50;7.75;;;;;22.30;28.94;102790.13;5056438;28;52791;-44
2022/01/24 10:00:25;;;;;;;;;10.50;10.00;;;;;22.27;29.55;102791.38;5057655;28;51087;-45
2022/01/24 10:02:51;;;;;;;;;10.00;10.00;;;;;22.23;29.33;102786.44;5057804;28;51136;-44
2022/01/24 10:05:24;;;;;;;;;12.25;9.75;;;;;22.19;29.64;102786.78;5057983;28;51112;-49
2022/01/24 10:07:57;;;;;;;;;10.00;9.75;;;;;22.15;29.52;102782.69;5057753;28;51931;-48
2022/01/24 10:10:38;;;;;;;;;10.00;8.25;;;;;22.12;29.53;102785.84;5058128;28;51372;-44
2022/01/24 10:16:35;;;;;;;;;10.50;9.00;;;;;22.08;29.79;102783.63;5057763;28;50968;-45
2022/01/24 10:19:00;;;;;;;;;11.25;8.75;;;;;22.05;29.95;102779.31;5057044;28;51836;-45
2022/01/24 10:21:25;;;;;;;;;9.75;9.25;;;;;22.04;29.55;102776.75;5056488;28;51064;-44
2022/01/24 10:23:51;;;;;;;;;9.25;8.00;;;;;22.03;29.94;102767.59;5057566;28;51211;-45
2022/01/24 10:26:16;;;;;;;;;7.75;7.50;;;;;22.03;29.88;102772.28;5058058;28;51011;-47
2022/01/24 10:28:44;;;;;;;;;8.25;8.25;;;;;22.04;30.15;102776.75;5057481;28;50983;-44
2022/01/24 10:31:09;;;;;;;;;10.00;9.00;;;;;22.03;29.83;102773.13;5057616;28;50928;-46
2022/01/24 10:34:34;;;;;;;;;13.00;11.25;;;;;22.04;29.94;102776.75;5057609;28;51045;-46
2022/01/24 10:36:55;;;;;;;;;11.50;11.50;;;;;22.06;29.99;102777.41;5057502;28;51039;-48
2022/01/24 10:39:42;;;;;;;;;11.00;11.00;;;;;22.07;30.50;102779.16;5057408;28;50977;-45
2022/01/24 10:44:51;;;;;;;;;15.50;10.25;;;;;22.09;30.67;102772.44;5058595;28;51146;-55
2022/01/24 10:47:28;;;;;;;;;9.75;9.75;;;;;22.12;30.71;102773.94;5057664;28;51357;-43
2022/01/24 10:49:54;;;;;;;;;9.25;7.00;;;;;22.12;30.83;102769.28;5072701;28;54014;-45
2022/01/24 10:52:29;;;;;;;;;12.50;12.50;;;;;22.12;30.82;102754.63;5059166;28;50980;-46
2022/01/24 10:55:16;;;;;;;;;14.00;11.00;;;;;22.13;30.75;102756.34;5057350;28;50955;-44
2022/01/24 10:57:43;;;;;;;;;14.50;11.25;;;;;22.13;30.82;102759.09;5057486;28;51280;-44
2022/01/24 11:00:16;;;;;;;;;13.25;11.50;;;;;22.13;31.11;102756.34;5057175;28;51369;-45
2022/01/24 11:02:48;;;;;;;;;15.25;11.50;;;;;22.15;31.23;102751.47;5057203;28;51048;-45
2022/01/24 11:05:21;;;;;;;;;6.75;5.25;;;;;22.13;31.39;102757.19;5057467;28;51026;-45
2022/01/24 11:08:09;;;;;;;;;10.25;9.25;;;;;22.14;31.25;102738.72;5057636;28;50933;-43
2022/01/24 11:10:38;;;;;;;;;9.00;9.00;;;;;22.15;31.18;102740.44;5056554;28;51010;-43
2022/01/24 11:13:05;;;;;;;;;10.50;8.75;;;;;22.15;31.31;102743.19;5056351;28;51121;-47
2022/01/24 11:15:31;;;;;;;;;10.50;8.75;;;;;22.15;31.32;102740.44;5056416;28;50962;-45
2022/01/24 11:17:58;;;;;;;;;11.25;9.50;;;;;22.16;30.62;102744.91;5057002;28;50916;-45
2022/01/24 11:20:31;;;;;;;;;9.50;9.00;;;;;22.17;31.03;102733.69;5056591;28;51665;-44
2022/01/24 11:23:04;;;;;;;;;8.00;8.00;;;;;22.26;31.02;102726.19;5056895;28;51091;-46
2022/01/24 11:25:36;;;;;;;;;7.75;7.75;;;;;22.37;30.41;102725.69;5057096;28;50972;-44
2022/01/24 11:28:02;;;;;;;;;10.75;7.75;;;;;22.47;30.47;102730.94;5056557;28;51174;-46
2022/01/24 11:30:43;;;;;;;;;10.25;8.50;;;;;22.58;30.43;102736.00;5072229;28;50951;-45
2022/01/24 11:33:12;;;;;;;;;10.50;10.00;;;;;22.68;30.53;102731.03;5057245;28;51400;-51
2022/01/24 11:35:54;;;;;;;;;7.25;7.25;;;;;22.75;30.21;102731.13;5057092;28;51055;-51
2022/01/24 11:38:28;;;;;;;;;11.00;8.25;;;;;22.84;29.91;102727.25;5056893;28;51586;-47
2022/01/24 11:41:20;;;;;;;;;11.00;8.50;;;;;22.92;30.44;102724.34;5056677;28;51657;-47
2022/01/24 11:43:50;;;;;;;;;9.25;9.25;;;;;23.01;29.68;102731.47;5063518;28;51486;-44
2022/01/24 11:46:42;;;;;;;;;9.50;8.25;;;;;23.07;30.03;102726.25;5076174;28;51133;-47
2022/01/24 11:49:12;;;;;;;;;12.25;10.75;;;;;23.11;30.11;102717.34;5071644;27;50963;-45
2022/01/24 11:51:40;;;;;;;;;12.00;8.75;;;;;23.18;29.83;102718.28;5062460;28;50893;-45
2022/01/24 11:54:43;;;;;;;;;10.25;9.00;;;;;23.25;30.01;102719.22;5070264;28;51008;-47
2022/01/24 11:57:37;;;;;;;;;9.75;9.00;;;;;23.31;29.96;102720.34;5074236;28;51205;-47
2022/01/24 12:00:05;;;;;;;;;9.00;9.00;;;;;23.37;30.37;102711.25;5048551;28;51142;-45
2022/01/24 12:02:55;;;;;;;;;7.00;7.00;;;;;23.40;30.28;102713.63;5056449;28;52760;-45
2022/01/24 12:05:39;;;;;;;;;13.00;10.00;;;;;23.45;30.27;102710.28;5075384;28;51421;-44
2022/01/24 12:08:06;;;;;;;;;11.50;8.75;;;;;23.48;30.00;102704.34;5075577;28;51132;-44
2022/01/24 12:10:38;;;;;;;;;11.25;9.25;;;;;23.51;30.35;102710.34;5074602;28;51384;-44
2022/01/24 12:13:36;;;;;;;;;10.50;7.00;;;;;23.54;30.32;102707.16;5069373;28;51947;-44
2022/01/24 12:16:06;;;;;;;;;10.25;9.75;;;;;23.58;30.29;102714.06;5075498;27;50952;-43
2022/01/24 12:18:33;;;;;;;;;9.50;9.50;;;;;23.61;30.34;102712.81;5075122;28;51110;-47
2022/01/24 12:21:01;;;;;;;;;8.25;7.00;;;;;23.63;29.75;102713.44;5070258;28;51197;-46
2022/01/24 12:23:33;;;;;;;;;8.50;7.75;;;;;23.65;29.89;102710.47;5064592;28;51096;-45
2022/01/24 12:26:25;;;;;;;;;8.00;7.25;;;;;23.68;30.34;102710.09;5064570;27;52351;-44
2022/01/24 12:28:53;;;;;;;;;8.75;7.75;;;;;23.71;30.09;102698.63;5052143;28;51063;-44
2022/01/24 12:31:21;;;;;;;;;9.25;7.75;;;;;23.73;30.45;102696.50;5060435;28;51315;-44
2022/01/24 12:33:53;;;;;;;;;9.00;7.25;;;;;23.77;30.10;102700.63;5059859;28;51893;-44
2022/01/24 12:36:48;;;;;;;;;7.00;6.00;;;;;23.78;29.95;102702.31;5058952;28;51034;-45
2022/01/24 12:39:19;;;;;;;;;8.00;8.00;;;;;23.81;30.15;102701.91;5071612;27;51142;-45
2022/01/24 12:41:52;;;;;;;;;7.25;5.75;;;;;23.82;30.38;102700.84;5060260;28;51268;-45
2022/01/24 12:47:14;;;;;;;;;8.00;7.00;;;;;23.81;30.35;102696.38;5067483;28;51026;-46
2022/01/24 12:49:42;;;;;;;;;6.50;6.00;;;;;23.78;30.32;102694.03;5074946;27;51257;-47
2022/01/24 12:52:13;;;;;;;;;7.00;6.00;;;;;23.72;30.23;102690.13;5065219;28;50968;-48
2022/01/24 12:54:42;;;;;;;;;9.00;8.75;;;;;23.66;30.18;102693.72;5053467;28;52002;-46
2022/01/24 12:57:14;;;;;;;;;27.25;20.50;;;;;23.59;28.55;102701.09;5073144;27;51397;-50
2022/01/24 13:00:13;;;;;;;;;26.50;26.50;;;;;23.43;27.65;102696.63;5071033;28;51094;-51
2022/01/24 13:02:40;;;;;;;;;28.50;28.50;;;;;23.19;26.76;102703.41;5060790;28;51760;-48
2022/01/24 13:05:07;;;;;;;;;30.25;26.50;;;;;22.99;26.76;102705.09;5062201;28;51766;-46
2022/01/24 13:07:34;;;;;;;;;29.00;27.75;;;;;22.79;26.93;102703.97;5077700;28;51298;-46
2022/01/24 13:10:07;;;;;;;;;27.50;25.75;;;;;22.54;26.97;102706.19;5074149;28;51108;-45
2022/01/24 13:12:33;;;;;;;;;32.75;29.75;;;;;22.34;27.15;102703.16;5071504;28;51236;-47